This is the latest recevied weather packets stored in our database for station/object WA1TYB-13. If no packets are shown the sender has not sent any weather packets the latest 1 day(s).
| Time | Temp. | Humidity | Pressure | Rain* | Wind** | Luminosity | Snow |
|---|---|---|---|---|---|---|---|
| 1778005979 | 10° C | 34% | 1019.5 hPa | 0 mm | 2.24 m/s, 114° | 406 W/m² | - |
| 1778005675 | 9.44° C | 37% | 1019.6 hPa | 0 mm | 4.02 m/s, 0° | 821 W/m² | - |
| 1778005372 | 8.89° C | 36% | 1019.5 hPa | 0 mm | 2.24 m/s, 21° | 509 W/m² | - |
| 1778005069 | 8.33° C | 37% | 1019.6 hPa | 0 mm | 4.02 m/s, 345° | 289 W/m² | - |
| 1778004766 | 8.33° C | 37% | 1019.4 hPa | 0 mm | 2.24 m/s, 79° | 248 W/m² | - |
| 1778004462 | 9.44° C | 38% | 1019.3 hPa | 0 mm | 3.13 m/s, 351° | 320 W/m² | - |
| 1778004159 | 8.89° C | 39% | 1019.5 hPa | 0 mm | 1.34 m/s, 27° | 895 W/m² | - |
| 1778003855 | 8.89° C | 40% | 1019.5 hPa | 0 mm | 2.24 m/s, 30° | 486 W/m² | - |
| 1778003552 | 8.89° C | 41% | 1019.5 hPa | 0 mm | 2.68 m/s, 39° | 278 W/m² | - |
| 1778003249 | 8.89° C | 41% | 1019.6 hPa | 0 mm | 1.79 m/s, 23° | 608 W/m² | - |
| 1778002946 | 8.33° C | 42% | 1019.6 hPa | 0 mm | 1.34 m/s, 28° | 474 W/m² | - |
| 1778002641 | 7.78° C | 43% | 1019.8 hPa | 0 mm | 2.24 m/s, 3° | 224 W/m² | - |
| 1778002339 | 8.33° C | 44% | 1019.7 hPa | 0 mm | 0.89 m/s, 90° | 192 W/m² | - |
| 1778002036 | 8.89° C | 43% | 1019.9 hPa | 0 mm | 1.79 m/s, 339° | 695 W/m² | - |
| 1778001732 | 7.78° C | 44% | 1019.6 hPa | 0 mm | 0.89 m/s, 45° | 849 W/m² | - |
| 1778001432 | 7.78° C | 45% | 1019.7 hPa | 0 mm | 1.34 m/s, 282° | 185 W/m² | - |
| 1778001130 | 7.22° C | 46% | 1019.6 hPa | 0 mm | 0.89 m/s, 48° | 161 W/m² | - |
| 1778000826 | 7.22° C | 46% | 1019.9 hPa | 0 mm | 2.24 m/s, 5° | 138 W/m² | - |
| 1778000523 | 7.22° C | 48% | 1020 hPa | 0 mm | 0 m/s | 252 W/m² | - |
| 1778000228 | 6.67° C | 48% | 1019.9 hPa | 0 mm | 0.89 m/s, 19° | 223 W/m² | - |
| 1777999914 | 7.22° C | 47% | 1019.7 hPa | 0 mm | 2.68 m/s, 336° | 306 W/m² | - |
| 1777999610 | 7.22° C | 49% | 1019.9 hPa | 0 mm | 1.79 m/s, 327° | 314 W/m² | - |
| 1777999307 | 7.78° C | 49% | 1020 hPa | 0 mm | 0.45 m/s, 353° | 380 W/m² | - |
| 1777999005 | 7.22° C | 46% | 1019.9 hPa | 0 mm | 0.45 m/s, 240° | 339 W/m² | - |
| 1777998703 | 7.22° C | 46% | 1019.8 hPa | 0 mm | 1.79 m/s, 261° | 349 W/m² | - |
* Rain latest hour (hover to see other rain measurements)
** Current wind speed in m/s (hover to see current wind gust speed)